createdAt,value
2018-05-14T00:01:53.252Z,10.60
2018-05-14T00:04:20.844Z,11.80
2018-05-14T00:06:48.439Z,10.57
2018-05-14T00:09:16.075Z,11.60
2018-05-14T00:11:43.702Z,10.63
2018-05-14T00:14:11.309Z,10.33
2018-05-14T00:16:38.943Z,9.30
2018-05-14T00:19:06.568Z,10.33
2018-05-14T00:21:34.146Z,9.13
2018-05-14T00:24:01.980Z,10.47
2018-05-14T00:26:29.572Z,10.00
2018-05-14T00:28:57.158Z,9.00
2018-05-14T00:31:24.791Z,8.50
2018-05-14T00:33:52.380Z,10.30
2018-05-14T00:36:19.986Z,10.13
2018-05-14T00:38:47.660Z,9.00
2018-05-14T00:41:15.243Z,11.37
2018-05-14T00:43:42.835Z,11.50
2018-05-14T00:46:10.459Z,11.43
2018-05-14T00:48:38.051Z,11.37
2018-05-14T00:51:05.643Z,10.73
2018-05-14T00:53:33.392Z,13.40
2018-05-14T00:56:00.969Z,12.43
2018-05-14T00:58:28.553Z,12.93
2018-05-14T01:00:56.180Z,11.13
2018-05-14T01:03:23.759Z,10.07
2018-05-14T01:05:51.344Z,12.43
2018-05-14T01:08:18.958Z,9.33
2018-05-14T01:10:46.650Z,10.47
2018-05-14T01:13:14.272Z,10.23
2018-05-14T01:15:41.876Z,10.10
2018-05-14T01:18:09.468Z,14.13
2018-05-14T01:20:37.062Z,15.63
2018-05-14T01:23:04.764Z,20.67
2018-05-14T01:25:32.415Z,18.13
2018-05-14T01:28:00.095Z,20.27
2018-05-14T01:30:27.656Z,21.20
2018-05-14T01:32:55.231Z,21.30
2018-05-14T01:35:22.820Z,14.53
2018-05-14T01:37:50.505Z,15.80
2018-05-14T01:40:18.099Z,16.27
2018-05-14T01:42:45.678Z,14.43
2018-05-14T01:45:13.296Z,13.07
2018-05-14T01:47:40.888Z,17.10
2018-05-14T01:50:08.571Z,18.60
2018-05-14T01:52:36.169Z,19.87
2018-05-14T01:55:03.748Z,15.10
2018-05-14T01:57:31.390Z,11.83
2018-05-14T01:59:59.032Z,13.40
2018-05-14T02:02:26.618Z,13.40
2018-05-14T02:04:54.243Z,12.50
2018-05-14T02:07:21.832Z,11.13
2018-05-14T02:09:49.419Z,10.70
2018-05-14T02:12:17.034Z,11.70
2018-05-14T02:14:44.624Z,13.10
2018-05-14T02:17:12.217Z,10.63
2018-05-14T02:19:39.871Z,11.73
2018-05-14T02:22:07.454Z,11.17
2018-05-14T02:24:35.046Z,12.27
2018-05-14T02:27:02.713Z,12.77
2018-05-14T02:29:30.307Z,12.73
2018-05-14T02:31:57.887Z,12.47
2018-05-14T02:34:25.522Z,12.17
2018-05-14T02:36:53.175Z,13.77
2018-05-14T02:39:20.760Z,12.80
2018-05-14T02:41:48.662Z,10.70
2018-05-14T02:44:16.262Z,12.70
2018-05-14T02:46:43.865Z,11.67
2018-05-14T02:49:11.515Z,12.60
2018-05-14T02:51:39.099Z,14.60
2018-05-14T02:54:06.674Z,12.63
2018-05-14T02:56:34.294Z,17.43
2018-05-14T02:59:01.882Z,15.23
2018-05-14T03:01:29.475Z,15.47
2018-05-14T03:03:57.097Z,17.43
2018-05-14T03:06:24.682Z,14.23
2018-05-14T03:08:52.277Z,16.67
2018-05-14T03:11:19.909Z,16.00
2018-05-14T03:13:47.520Z,15.83
2018-05-14T03:16:15.127Z,15.70
2018-05-14T03:18:42.792Z,16.37
2018-05-14T03:21:10.381Z,17.07
2018-05-14T03:23:37.964Z,15.87
2018-05-14T03:26:05.584Z,15.10
2018-05-14T03:28:33.171Z,15.20
2018-05-14T03:31:00.769Z,15.10
2018-05-14T03:33:28.425Z,16.60
2018-05-14T03:35:56.029Z,15.13
2018-05-14T03:38:23.618Z,15.40
2018-05-14T03:40:51.236Z,13.93
2018-05-14T03:43:18.816Z,15.10
2018-05-14T03:45:46.415Z,12.80
2018-05-14T03:48:14.079Z,11.53
2018-05-14T03:50:41.668Z,11.97
2018-05-14T03:53:09.251Z,12.00
2018-05-14T03:55:36.879Z,13.50
2018-05-14T03:58:04.500Z,13.70
2018-05-14T04:00:43.910Z,12.57
2018-05-14T04:03:23.164Z,12.87
2018-05-14T04:06:02.416Z,12.60
2018-05-14T04:08:30.006Z,11.83
2018-05-14T04:10:57.596Z,10.03
2018-05-14T04:13:25.207Z,18.20
2018-05-14T04:15:52.808Z,13.03
2018-05-14T04:18:20.421Z,11.90
2018-05-14T04:20:48.049Z,9.40
2018-05-14T04:23:15.760Z,10.00
2018-05-14T04:25:43.343Z,13.60
2018-05-14T04:28:11.063Z,9.03
2018-05-14T04:30:38.732Z,13.20
2018-05-14T04:33:06.318Z,12.40
2018-05-14T04:35:34.067Z,10.27
2018-05-14T04:38:01.660Z,10.20
2018-05-14T04:40:29.247Z,10.83
2018-05-14T04:42:56.936Z,10.70
2018-05-14T04:45:24.704Z,12.33
2018-05-14T04:47:52.291Z,13.10
2018-05-14T04:50:19.906Z,9.10
2018-05-14T04:52:47.493Z,10.33
2018-05-14T04:55:15.224Z,11.30
2018-05-14T04:57:43.014Z,12.20
2018-05-14T05:00:10.637Z,9.97
2018-05-14T05:02:38.338Z,10.13
2018-05-14T05:05:05.959Z,10.90
2018-05-14T05:07:33.544Z,10.70
2018-05-14T05:10:01.327Z,10.97
2018-05-14T05:12:28.947Z,9.90
2018-05-14T05:14:56.868Z,11.53
2018-05-14T05:17:24.455Z,10.47
2018-05-14T05:19:52.176Z,11.30
2018-05-14T05:22:19.851Z,9.67
2018-05-14T05:24:47.516Z,8.63
2018-05-14T05:27:15.382Z,8.47
2018-05-14T05:29:43.045Z,8.67
2018-05-14T05:32:10.623Z,8.73
2018-05-14T05:34:38.232Z,8.70
2018-05-14T05:37:05.807Z,8.40
2018-05-14T05:39:33.479Z,7.70
2018-05-14T05:42:01.108Z,8.27
2018-05-14T05:44:28.680Z,8.07
2018-05-14T05:46:56.478Z,6.73
2018-05-14T05:49:24.324Z,7.77
2018-05-14T05:51:52.001Z,8.50
2018-05-14T05:54:19.591Z,9.63
2018-05-14T05:56:47.210Z,9.00
2018-05-14T05:59:14.961Z,6.93
2018-05-14T06:01:42.533Z,6.90
2018-05-14T06:04:10.305Z,6.60
2018-05-14T06:06:37.896Z,5.37
2018-05-14T06:09:06.460Z,5.60
2018-05-14T06:11:34.318Z,5.77
2018-05-14T06:14:01.897Z,5.60
2018-05-14T06:16:29.646Z,5.10
2018-05-14T06:18:57.252Z,4.43
2018-05-14T06:21:24.977Z,4.40
2018-05-14T06:23:52.570Z,4.40
2018-05-14T06:26:20.282Z,4.80
2018-05-14T06:28:47.859Z,6.77
2018-05-14T06:31:15.627Z,5.07
2018-05-14T06:33:43.226Z,6.90
2018-05-14T06:36:10.954Z,5.33
2018-05-14T06:38:38.609Z,4.73
2018-05-14T06:41:06.285Z,5.80
2018-05-14T06:43:33.840Z,6.30
2018-05-14T06:46:01.420Z,5.00
2018-05-14T06:48:29.255Z,6.30
2018-05-14T06:50:56.849Z,5.83
2018-05-14T06:53:24.571Z,5.47
2018-05-14T06:55:52.187Z,4.57
2018-05-14T06:58:20.025Z,5.63
2018-05-14T07:00:47.868Z,5.40
2018-05-14T07:03:19.140Z,5.13
2018-05-14T07:05:46.774Z,4.50
2018-05-14T07:08:14.440Z,5.40
2018-05-14T07:10:42.046Z,5.97
2018-05-14T07:13:09.625Z,5.63
2018-05-14T07:15:37.207Z,6.20
2018-05-14T07:18:04.886Z,5.87
2018-05-14T07:20:32.458Z,6.13
2018-05-14T07:23:00.036Z,6.40
2018-05-14T07:25:27.657Z,6.23
2018-05-14T07:27:55.328Z,6.77
2018-05-14T07:30:22.911Z,6.80
2018-05-14T07:32:50.520Z,5.40
2018-05-14T07:35:18.945Z,6.80
2018-05-14T07:37:46.604Z,6.37
2018-05-14T07:40:14.229Z,6.30
2018-05-14T07:42:42.143Z,7.63
2018-05-14T07:45:09.743Z,6.43
2018-05-14T07:47:37.482Z,6.70
2018-05-14T07:50:05.043Z,5.87
2018-05-14T07:52:32.926Z,6.10
2018-05-14T07:55:00.719Z,6.10
2018-05-14T07:57:28.311Z,4.87
2018-05-14T07:59:55.868Z,5.07
2018-05-14T08:02:23.468Z,5.00
2018-05-14T08:04:51.051Z,4.50
2018-05-14T08:07:18.744Z,5.23
2018-05-14T08:09:46.408Z,5.50
2018-05-14T08:12:14.081Z,5.07
2018-05-14T08:14:41.656Z,5.50
2018-05-14T08:17:09.409Z,5.73
2018-05-14T08:19:36.991Z,3.83
2018-05-14T08:22:04.576Z,4.30
2018-05-14T08:24:32.208Z,5.43
2018-05-14T08:26:59.775Z,5.90
2018-05-14T08:29:27.355Z,4.73
2018-05-14T08:31:55.165Z,5.07
2018-05-14T08:34:22.735Z,4.10
2018-05-14T08:36:50.489Z,4.77
2018-05-14T08:39:18.312Z,5.00
2018-05-14T08:41:45.823Z,5.50
2018-05-14T08:44:13.401Z,3.90
2018-05-14T08:46:41.147Z,3.73
2018-05-14T08:49:08.810Z,4.07
2018-05-14T08:51:36.391Z,4.80
2018-05-14T08:54:04.120Z,4.93
2018-05-14T08:56:31.790Z,4.40
2018-05-14T08:58:59.459Z,4.67
2018-05-14T09:01:27.122Z,3.33
2018-05-14T09:03:54.708Z,4.30
2018-05-14T09:06:22.444Z,5.93
2018-05-14T09:08:50.081Z,4.20
2018-05-14T09:11:17.754Z,4.20
2018-05-14T09:13:45.326Z,4.20
2018-05-14T09:16:13.093Z,4.70
2018-05-14T09:18:40.922Z,4.10
2018-05-14T09:21:08.500Z,4.90
2018-05-14T09:23:36.197Z,4.93
2018-05-14T09:26:03.780Z,5.00
2018-05-14T09:28:31.464Z,5.27
2018-05-14T09:30:59.155Z,5.87
2018-05-14T09:33:26.731Z,5.37
2018-05-14T09:35:54.590Z,4.80
2018-05-14T09:38:22.261Z,4.40
2018-05-14T09:40:49.911Z,4.70
2018-05-14T09:43:17.571Z,5.07
2018-05-14T09:45:45.188Z,4.10
2018-05-14T09:48:12.909Z,4.67
2018-05-14T09:50:40.674Z,4.63
2018-05-14T09:53:08.300Z,5.43
2018-05-14T09:55:36.082Z,6.00
2018-05-14T09:58:03.761Z,5.40
2018-05-14T10:00:31.392Z,5.77
2018-05-14T10:02:59.077Z,6.07
2018-05-14T10:05:26.738Z,6.63
2018-05-14T10:07:54.370Z,6.50
2018-05-14T10:10:21.953Z,4.43
2018-05-14T10:12:49.544Z,4.70
2018-05-14T10:15:17.393Z,4.50
2018-05-14T10:17:45.462Z,6.40
2018-05-14T10:20:13.047Z,3.97
2018-05-14T10:22:40.785Z,4.00
2018-05-14T10:25:08.371Z,3.67
2018-05-14T10:27:36.118Z,4.47
2018-05-14T10:30:03.774Z,5.37
2018-05-14T10:32:31.434Z,4.87
2018-05-14T10:34:59.008Z,4.20
2018-05-14T10:37:26.625Z,4.30
2018-05-14T10:39:54.200Z,4.83
2018-05-14T10:42:21.877Z,5.93
2018-05-14T10:44:49.486Z,5.33
2018-05-14T10:47:17.339Z,7.50
2018-05-14T10:49:44.951Z,7.90
2018-05-14T10:52:12.778Z,5.57
2018-05-14T10:54:40.361Z,5.50
2018-05-14T10:57:08.164Z,5.80
2018-05-14T10:59:35.773Z,5.30
2018-05-14T11:02:03.352Z,7.10
2018-05-14T11:04:31.036Z,5.40
2018-05-14T11:06:58.705Z,6.20
2018-05-14T11:09:26.290Z,5.30
2018-05-14T11:11:53.861Z,5.43
2018-05-14T11:14:21.680Z,6.10
2018-05-14T11:16:49.349Z,4.13
2018-05-14T11:19:16.927Z,3.37
2018-05-14T11:21:44.671Z,3.90
2018-05-14T11:24:12.256Z,4.50
2018-05-14T11:26:39.831Z,3.83
2018-05-14T11:29:07.471Z,4.40
2018-05-14T11:31:35.117Z,3.23
2018-05-14T11:34:02.795Z,3.17
2018-05-14T11:36:30.408Z,3.50
2018-05-14T11:38:58.106Z,3.50
2018-05-14T11:41:25.777Z,3.47
2018-05-14T11:43:53.431Z,3.17
2018-05-14T11:46:21.098Z,3.80
2018-05-14T11:48:48.660Z,3.50
2018-05-14T11:51:16.410Z,3.20
2018-05-14T11:53:43.995Z,3.20
2018-05-14T11:56:11.747Z,2.77
2018-05-14T11:58:39.350Z,3.50
2018-05-14T12:01:07.060Z,2.57
2018-05-14T12:03:34.646Z,4.73
2018-05-14T12:06:02.294Z,3.60
2018-05-14T12:08:30.081Z,3.50
2018-05-14T12:10:57.658Z,3.43
2018-05-14T12:13:25.269Z,4.00
2018-05-14T12:15:53.026Z,5.00
2018-05-14T12:18:20.697Z,4.23
2018-05-14T12:20:48.361Z,5.10
2018-05-14T12:23:16.025Z,4.00
2018-05-14T12:25:43.616Z,4.60
2018-05-14T12:28:11.353Z,3.60
2018-05-14T12:30:38.949Z,4.60
2018-05-14T12:33:06.587Z,4.70
2018-05-14T12:35:34.191Z,4.23
2018-05-14T12:38:01.808Z,4.37
2018-05-14T12:40:29.469Z,4.03
2018-05-14T12:42:57.081Z,5.53
2018-05-14T12:45:24.785Z,6.20
2018-05-14T12:47:52.458Z,5.20
2018-05-14T12:50:20.066Z,5.77
2018-05-14T12:52:47.634Z,5.60
2018-05-14T12:55:15.206Z,4.43
2018-05-14T12:57:42.824Z,5.70
2018-05-14T13:00:10.406Z,5.40
2018-05-14T13:02:37.979Z,4.53
2018-05-14T13:05:05.678Z,4.87
2018-05-14T13:07:33.348Z,5.20
2018-05-14T13:10:01.008Z,5.57
2018-05-14T13:12:28.635Z,4.30
2018-05-14T13:14:56.224Z,5.07
2018-05-14T13:17:23.989Z,4.10
2018-05-14T13:19:51.661Z,4.30
2018-05-14T13:22:19.333Z,4.17
2018-05-14T13:24:46.923Z,4.43
2018-05-14T13:27:14.648Z,3.90
2018-05-14T13:29:42.296Z,3.70
2018-05-14T13:32:09.980Z,3.87
2018-05-14T13:34:37.624Z,4.43
2018-05-14T13:37:05.275Z,4.50
2018-05-14T13:39:32.941Z,3.80
2018-05-14T13:42:00.561Z,4.67
2018-05-14T13:44:28.511Z,4.00
2018-05-14T13:46:56.104Z,4.70
2018-05-14T13:49:23.716Z,4.93
2018-05-14T13:51:51.661Z,5.90
2018-05-14T13:54:19.247Z,5.57
2018-05-14T13:56:46.874Z,5.37
2018-05-14T13:59:14.460Z,4.80
2018-05-14T14:01:42.039Z,4.47
2018-05-14T14:04:09.661Z,5.00
2018-05-14T14:06:37.249Z,4.97
2018-05-14T14:09:04.889Z,5.53
2018-05-14T14:11:32.505Z,6.50
2018-05-14T14:14:00.148Z,5.10
2018-05-14T14:16:27.723Z,5.10
2018-05-14T14:18:55.335Z,4.67
2018-05-14T14:21:22.912Z,4.47
2018-05-14T14:23:50.704Z,4.03
2018-05-14T14:26:18.136Z,4.20
2018-05-14T14:28:45.694Z,4.37
2018-05-14T14:31:13.288Z,5.70
2018-05-14T14:33:40.894Z,5.83
2018-05-14T14:36:08.524Z,4.97
2018-05-14T14:38:36.104Z,4.80
2018-05-14T14:41:03.727Z,4.37
2018-05-14T14:43:31.324Z,4.80
2018-05-14T14:45:58.895Z,4.40
2018-05-14T14:48:26.509Z,5.37
2018-05-14T14:50:54.120Z,4.17
2018-05-14T14:53:21.839Z,5.53
2018-05-14T14:55:49.620Z,5.73
2018-05-14T14:58:17.271Z,4.27
2018-05-14T15:00:44.829Z,5.20
2018-05-14T15:03:12.393Z,4.30
2018-05-14T15:05:40.011Z,4.83
2018-05-14T15:08:07.593Z,6.80
2018-05-14T15:10:35.254Z,5.10
2018-05-14T15:13:02.873Z,5.40
2018-05-14T15:15:30.537Z,5.47
2018-05-14T15:17:58.136Z,5.53
2018-05-14T15:20:25.778Z,6.30
2018-05-14T15:22:53.346Z,5.60
2018-05-14T15:25:20.930Z,6.63
2018-05-14T15:27:48.560Z,5.10
2018-05-14T15:30:16.161Z,5.33
2018-05-14T15:32:43.739Z,5.67
2018-05-14T15:35:11.351Z,6.20
2018-05-14T15:37:38.923Z,5.40
2018-05-14T15:40:06.500Z,4.40
2018-05-14T15:42:34.112Z,5.60
2018-05-14T15:45:01.693Z,5.10
2018-05-14T15:47:29.258Z,5.50
2018-05-14T15:49:56.939Z,5.20
2018-05-14T15:52:24.484Z,4.70
2018-05-14T15:54:52.062Z,5.80
2018-05-14T15:57:19.726Z,4.70
2018-05-14T15:59:47.308Z,5.60
2018-05-14T16:02:14.898Z,5.70
2018-05-14T16:04:42.532Z,6.07
2018-05-14T16:07:10.159Z,6.63
2018-05-14T16:09:37.734Z,6.13
2018-05-14T16:12:05.340Z,6.40
2018-05-14T16:14:32.952Z,5.13
2018-05-14T16:17:00.594Z,7.03
2018-05-14T16:19:28.213Z,6.87
2018-05-14T16:21:55.799Z,6.10
2018-05-14T16:24:23.429Z,6.53
2018-05-14T16:26:51.225Z,6.93
2018-05-14T16:29:18.804Z,6.00
2018-05-14T16:31:46.378Z,6.27
2018-05-14T16:34:14.167Z,6.57
2018-05-14T16:36:41.722Z,6.90
2018-05-14T16:39:09.299Z,7.30
2018-05-14T16:41:36.909Z,6.73
2018-05-14T16:44:04.498Z,6.47
2018-05-14T16:46:32.080Z,9.27
2018-05-14T16:48:59.727Z,6.90
2018-05-14T16:51:27.304Z,7.30
2018-05-14T16:53:54.882Z,8.10
2018-05-14T16:56:22.675Z,7.50
2018-05-14T16:58:50.408Z,7.03
2018-05-14T17:01:17.980Z,7.70
2018-05-14T17:03:45.731Z,9.20
2018-05-14T17:06:13.269Z,10.37
2018-05-14T17:08:40.845Z,9.37
2018-05-14T17:11:08.646Z,8.60
2018-05-14T17:13:36.211Z,8.57
2018-05-14T17:16:03.775Z,8.40
2018-05-14T17:18:31.365Z,8.30
2018-05-14T17:20:58.935Z,7.63
2018-05-14T17:23:26.545Z,7.40
2018-05-14T17:25:54.211Z,10.33
2018-05-14T17:28:21.790Z,8.70
2018-05-14T17:30:49.561Z,13.23
2018-05-14T17:33:17.396Z,10.10
2018-05-14T17:35:45.131Z,8.33
2018-05-14T17:38:12.928Z,11.30
2018-05-14T17:40:40.631Z,7.67
2018-05-14T17:43:08.696Z,8.33
2018-05-14T17:45:36.492Z,8.00
2018-05-14T17:48:04.167Z,7.00
2018-05-14T17:50:31.759Z,8.40
2018-05-14T17:52:59.420Z,7.53
2018-05-14T17:55:27.387Z,8.73
2018-05-14T17:57:55.041Z,8.70
2018-05-14T18:00:22.712Z,9.07
2018-05-14T18:02:50.354Z,8.93
2018-05-14T18:05:18.060Z,10.10
2018-05-14T18:07:45.636Z,8.80
2018-05-14T18:10:13.266Z,8.07
2018-05-14T18:12:40.858Z,10.97
2018-05-14T18:15:08.438Z,11.90
2018-05-14T18:17:36.564Z,10.80
2018-05-14T18:20:09.541Z,11.50
2018-05-14T18:22:40.277Z,11.83
2018-05-14T18:25:13.666Z,10.87
2018-05-14T18:27:46.854Z,13.37
2018-05-14T18:30:14.445Z,10.13
2018-05-14T18:35:54.555Z,9.73
2018-05-14T18:38:22.367Z,12.10
2018-05-14T18:40:50.008Z,11.03
2018-05-14T18:43:17.587Z,10.37
2018-05-14T18:45:45.403Z,10.40
2018-05-14T18:48:12.987Z,10.43
2018-05-14T18:50:40.654Z,11.03
2018-05-14T18:53:08.261Z,12.53
2018-05-14T18:55:35.980Z,13.07
2018-05-14T18:58:03.648Z,10.07
2018-05-14T19:00:31.319Z,10.47
2018-05-14T19:02:58.899Z,14.53
2018-05-14T19:05:26.632Z,12.50
2018-05-14T19:07:54.313Z,13.10
2018-05-14T19:10:27.500Z,11.30
2018-05-14T19:12:55.162Z,11.00
2018-05-14T19:15:28.210Z,12.03
2018-05-14T19:18:00.713Z,9.10
2018-05-14T19:20:28.300Z,13.57
2018-05-14T19:23:01.580Z,9.60
2018-05-14T19:25:29.188Z,8.73
2018-05-14T19:28:02.437Z,9.13
2018-05-14T19:30:30.101Z,10.13
2018-05-14T19:32:57.703Z,9.40
2018-05-14T19:35:31.332Z,9.77
2018-05-14T19:37:59.231Z,8.10
2018-05-14T19:40:32.572Z,8.80
2018-05-14T19:43:00.190Z,9.53
2018-05-14T19:45:27.942Z,13.67
2018-05-14T19:47:55.545Z,8.50
2018-05-14T19:50:23.205Z,8.87
2018-05-14T19:52:50.743Z,8.60
2018-05-14T19:55:18.664Z,7.60
2018-05-14T19:57:46.261Z,8.53
2018-05-14T20:00:13.908Z,8.83
2018-05-14T20:02:41.505Z,8.87
2018-05-14T20:05:09.072Z,10.20
2018-05-14T20:07:36.707Z,10.57
2018-05-14T20:10:04.332Z,10.63
2018-05-14T20:12:32.119Z,10.20
2018-05-14T20:14:59.982Z,11.50
2018-05-14T20:17:27.648Z,10.53
2018-05-14T20:19:55.267Z,10.00
2018-05-14T20:22:23.110Z,12.30
2018-05-14T20:24:50.855Z,13.83
2018-05-14T20:27:18.596Z,14.37
2018-05-14T20:29:46.583Z,13.93
2018-05-14T20:32:14.251Z,17.27
2018-05-14T20:34:41.841Z,12.63
2018-05-14T20:37:09.603Z,14.83
2018-05-14T20:39:37.232Z,12.63
2018-05-14T20:42:04.900Z,11.30
2018-05-14T20:44:32.487Z,12.23
2018-05-14T20:47:00.108Z,13.20
2018-05-14T20:49:27.687Z,14.07
2018-05-14T20:51:55.529Z,12.63
2018-05-14T20:54:23.162Z,14.17
2018-05-14T20:56:50.852Z,13.57
2018-05-14T20:59:18.741Z,14.97
2018-05-14T21:01:46.356Z,13.47
2018-05-14T21:04:14.052Z,15.20
2018-05-14T21:06:41.707Z,16.70
2018-05-14T21:09:09.334Z,16.83
2018-05-14T21:11:36.947Z,17.47
2018-05-14T21:14:04.584Z,15.70
2018-05-14T21:16:32.377Z,15.40
2018-05-14T21:18:59.971Z,17.13
2018-05-14T21:21:27.554Z,18.10
2018-05-14T21:23:55.192Z,14.70
2018-05-14T21:26:22.775Z,15.93
2018-05-14T21:28:50.484Z,15.03
2018-05-14T21:31:18.203Z,16.73
2018-05-14T21:33:45.786Z,16.90
2018-05-14T21:36:13.362Z,14.13
2018-05-14T21:38:40.980Z,13.83
2018-05-14T21:41:08.562Z,16.33
2018-05-14T21:43:36.144Z,16.10
2018-05-14T21:46:03.761Z,15.27
2018-05-14T21:48:31.344Z,14.70
2018-05-14T21:50:58.911Z,17.53
2018-05-14T21:53:26.545Z,18.13
2018-05-14T21:55:54.208Z,17.37
2018-05-14T21:58:21.788Z,18.13
2018-05-14T22:00:49.400Z,17.30
2018-05-14T22:03:16.985Z,19.93
2018-05-14T22:05:50.740Z,17.90
2018-05-14T22:08:18.414Z,18.37
2018-05-14T22:10:46.014Z,17.33
2018-05-14T22:13:13.642Z,17.03
2018-05-14T22:15:41.367Z,16.77
2018-05-14T22:18:08.973Z,16.43
2018-05-14T22:20:36.620Z,16.80
2018-05-14T22:23:04.359Z,13.40
2018-05-14T22:25:31.959Z,14.03
2018-05-14T22:27:59.612Z,15.30
2018-05-14T22:30:27.191Z,16.83
2018-05-14T22:32:54.778Z,16.93
2018-05-14T22:35:22.383Z,16.97
2018-05-14T22:37:49.973Z,17.30
2018-05-14T22:40:17.552Z,20.53
2018-05-14T22:42:45.180Z,20.70
2018-05-14T22:45:12.780Z,22.67
2018-05-14T22:47:40.409Z,20.57
2018-05-14T22:50:08.073Z,20.10
2018-05-14T22:52:35.666Z,24.17
2018-05-14T22:55:03.254Z,25.67
2018-05-14T22:57:30.888Z,27.57
2018-05-14T22:59:58.560Z,25.60
2018-05-14T23:02:26.563Z,25.40
2018-05-14T23:04:54.177Z,25.83
2018-05-14T23:07:21.849Z,23.73
2018-05-14T23:09:49.521Z,25.47
2018-05-14T23:12:17.371Z,25.60
2018-05-14T23:14:45.214Z,27.43
2018-05-14T23:17:13.163Z,25.20
2018-05-14T23:19:41.234Z,25.87
2018-05-14T23:22:09.307Z,25.50
2018-05-14T23:24:37.175Z,26.30
2018-05-14T23:27:05.245Z,26.80
2018-05-14T23:29:33.318Z,25.57
2018-05-14T23:32:01.209Z,23.90
2018-05-14T23:34:29.284Z,26.53
2018-05-14T23:36:57.245Z,22.80
2018-05-14T23:39:24.992Z,23.97
2018-05-14T23:41:53.063Z,25.97
2018-05-14T23:44:21.135Z,22.60
2018-05-14T23:46:49.181Z,20.90
2018-05-14T23:49:17.271Z,23.30
2018-05-14T23:51:45.146Z,23.63
2018-05-14T23:54:13.216Z,24.13
2018-05-14T23:56:41.275Z,27.10
2018-05-14T23:59:09.155Z,25.70
